• Join FlightAware (Why Join?)
  • Login
  • US Flag 
08:18AM EDT


 

Airport Tracker/Info


-or-


 

Live Flight TrackerFlight Track Log ✈ N875P ✈ 24-Apr-2014 ✈ KHOU - KNEW

Flight Track Log - Related Links

Times and Time Zones

All times are in EDT time to prevent confusion due to time zone crossing. See the N875P flight status page for this flight to view local times or setup timezone preferences in your user account.

Time Position Orientation Groundspeed Altitude Reporting Facility
EDT Latitude Longitude Course Direction KTS MPH feet Rate Location/Type
06:47PM 29.6353 -95.2892 165° South 170 196 400  Level Houston Center
06:48PM 29.5900 -95.2753 165° South 219 252 2,600 2,100 Climbing Houston Center
06:49PM 29.5442 -95.2214 134° Southeast 232 267 4,600 1,680 Climbing Houston Center
06:50PM 29.4817 -95.1658 142° Southeast 279 321 6,100 1,980 Climbing Houston Center
06:51PM 29.4714 -95.0775 98° East 303 349 8,700 2,220 Climbing Houston Center
06:52PM 29.5050 -94.9928 65° Northeast 297 342 10,700 1,680 Climbing Houston Center
06:53PM 29.5478 -94.8769 67° East 331 381 12,200 960 Climbing Houston Center
06:54PM 29.5828 -94.7647 70° East 371 427 12,700 540 Climbing Houston Center
06:55PM 29.6219 -94.6483 69° East 387 445 13,400 600 Climbing Houston Center
06:56PM 29.6614 -94.5275 69° East 401 461 14,000 720 Climbing Houston Center
06:57PM 29.7025 -94.4028 69° East 412 474 14,900 1,140 Climbing Houston Center
06:58PM 29.7133 -94.2478 85° East 406 467 16,400 1,200 Climbing Houston Center
06:59PM 29.6981 -94.1344 99° East 410 472 17,400 1,200 Climbing Houston Center
07:00PM 29.6867 -93.9789 95° East 410 472 19,000 1,320 Climbing Houston Center
07:01PM 29.6861 -93.8492 90° East 409 471 20,200 1,080 Climbing Houston Center
07:02PM 29.6836 -93.7194 91° East 408 470 21,300 1,020 Climbing Houston Center
07:03PM 29.6828 -93.5861 90° East 418 481 22,400 720 Climbing Houston Center
07:04PM 29.6814 -93.4200 91° East 435 501 22,900 240 Climbing Houston Center
07:05PM 29.6811 -93.2789 90° East 446 513 23,000  Climbing Houston Center
07:06PM 29.7081 -93.1492 77° East 422 486 22,900  Descending Houston Center
07:07PM 29.7339 -93.0217 77° East 414 476 23,000  Climbing Houston Center
07:08PM 29.7586 -92.8947 77° East 410 472 22,900 -60 Descending Houston Center
07:09PM 29.7828 -92.7625 78° East 421 484 22,900  Level Houston Center
07:10PM 29.8136 -92.6000 78° East 434 499 22,900  Level Houston Center
07:12PM 29.8417 -92.4581 77° East 448 516 22,900  Level Houston Center
07:13PM 29.8694 -92.3131 78° East 460 529 22,900  Level Houston Center
07:14PM 29.8961 -92.1669 78° East 463 533 23,000  Climbing Houston Center
07:15PM 29.9236 -92.0192 78° East 469 540 22,900 -300 Descending Houston Center
07:16PM 29.9575 -91.8428 77° East 470 541 22,500 -780 Descending Houston Center
07:17PM 29.9839 -91.6956 78° East 461 531 21,300 -1,620 Descending Houston Center
07:18PM 30.0086 -91.5528 79° East 458 527 19,200 -2,040 Descending Houston Center
07:19PM 30.0344 -91.4089 78° East 459 528 17,100 -1,800 Descending Houston Center
07:20PM 30.0633 -91.2675 77° East 451 519 15,600 -1,380 Descending Houston Center
07:21PM 30.0817 -91.1506 80° East 375 432 14,600 -1,020 Descending Houston Center
07:21PM 30.0839 -91.1489 33° Northeast 385 443 14,600 -1,500 Level Houston Center
07:22PM 30.1019 -91.0322 80° East 363 418 13,100 -1,800 Descending Houston Center
07:22PM 30.1075 -91.0117 73° East 368 423 12,800 -1,800 Descending Houston Center
07:23PM 30.1139 -90.9214 85° East 353 406 11,300 -1,800 Descending Houston Center
07:23PM 30.1144 -90.9006 88° East 357 411 11,000 -1,800 Descending Houston Center
07:24PM 30.1047 -90.8133 97° East 326 375 9,500 -1,800 Descending Houston Center
07:24PM 30.1053 -90.7950 88° East 346 398 9,200 -1,620 Descending Houston Center
07:25PM 30.0875 -90.7203 105° East 285 328 7,900 -600 Descending Houston Center
07:25PM 30.1039 -90.6992 48° Northeast 338 389 8,600 -1,980 Climbing Houston Center
07:26PM 30.0397 -90.6475 145° Southeast 297 342 5,900 -2,280 Descending Houston Center
07:27PM 30.0456 -90.5586 86° East 299 344 5,000 -480 Descending Houston Center
07:28PM 30.0597 -90.4692 80° East 279 321 5,000  Level Houston Center
07:29PM 30.0694 -90.3728 83° East 302 348 5,000  Level Houston Center
07:30PM 30.0772 -90.2786 85° East 289 333 5,000 -420 Level Houston Center
07:31PM 30.0889 -90.1869 82° East 284 327 4,200 -1,260 Descending Houston Center
07:32PM 30.0989 -90.1000 82° East 271 312 2,500 -1,620 Descending Houston Center
07:33PM 30.0903 -90.0306 98° East 220 253 1,000 -1,500 Descending Houston Center
07:35PM 30.0424 -90.0283 101° East  Level Estimated
07:42PM 30.0424 -90.0283 101° East  Level Estimated